createdAt,value
2022-12-27T00:00:41.129Z,14.25
2022-12-27T00:03:09.567Z,15.27
2022-12-27T00:05:37.971Z,8.20
2022-12-27T00:08:06.401Z,11.82
2022-12-27T00:10:37.807Z,13.75
2022-12-27T00:13:06.251Z,12.05
2022-12-27T00:15:36.867Z,15.45
2022-12-27T00:18:05.413Z,20.88
2022-12-27T00:20:33.802Z,14.32
2022-12-27T00:23:02.538Z,16.30
2022-12-27T00:25:30.940Z,17.05
2022-12-27T00:27:59.280Z,20.88
2022-12-27T00:30:27.616Z,11.73
2022-12-27T00:32:57.387Z,13.02
2022-12-27T00:35:25.756Z,13.25
2022-12-27T00:37:54.136Z,15.35
2022-12-27T00:40:22.494Z,13.43
2022-12-27T00:42:50.859Z,17.00
2022-12-27T00:45:19.472Z,11.63
2022-12-27T00:47:47.822Z,16.08
2022-12-27T00:50:17.638Z,13.18
2022-12-27T00:52:46.026Z,12.05
2022-12-27T00:55:14.520Z,11.90
2022-12-27T00:57:42.974Z,15.50
2022-12-27T01:00:12.406Z,13.60
2022-12-27T01:02:41.330Z,12.25
2022-12-27T01:05:11.026Z,15.18
2022-12-27T01:07:42.142Z,17.05
2022-12-27T01:10:11.557Z,16.77
2022-12-27T01:12:40.221Z,18.20
2022-12-27T01:15:09.976Z,8.70
2022-12-27T01:17:38.395Z,18.35
2022-12-27T01:20:08.085Z,15.07
2022-12-27T01:22:36.505Z,17.77
2022-12-27T01:25:07.583Z,15.95
2022-12-27T01:27:35.998Z,25.33
2022-12-27T01:30:04.596Z,16.65
2022-12-27T01:32:34.360Z,14.98
2022-12-27T01:35:03.029Z,11.48
2022-12-27T01:37:31.519Z,9.43
2022-12-27T01:39:59.859Z,11.75
2022-12-27T01:42:46.790Z,13.60
2022-12-27T01:45:16.313Z,17.90
2022-12-27T01:47:51.275Z,21.00
2022-12-27T01:50:27.058Z,11.38
2022-12-27T01:53:03.373Z,13.85
2022-12-27T01:55:36.102Z,18.23
2022-12-27T01:58:09.566Z,16.42
2022-12-27T02:00:39.067Z,13.13
2022-12-27T02:03:08.554Z,11.52
2022-12-27T02:05:41.744Z,14.52
2022-12-27T02:08:21.299Z,17.35
2022-12-27T02:10:51.302Z,14.30
2022-12-27T02:13:21.594Z,15.52
2022-12-27T02:15:49.994Z,13.70
2022-12-27T02:18:19.780Z,11.85
2022-12-27T02:21:10.595Z,18.05
2022-12-27T02:24:04.075Z,18.00
2022-12-27T02:26:46.990Z,18.05
2022-12-27T02:29:43.925Z,12.40
2022-12-27T02:32:18.321Z,17.35
2022-12-27T02:37:21.630Z,14.68
2022-12-27T02:39:51.790Z,14.82
2022-12-27T02:42:39.214Z,10.80
2022-12-27T02:45:36.642Z,13.20
2022-12-27T02:48:27.336Z,7.90
2022-12-27T02:51:26.381Z,15.25
2022-12-27T02:54:07.661Z,14.65
2022-12-27T02:57:08.495Z,10.52
2022-12-27T03:00:21.114Z,11.93
2022-12-27T03:03:24.872Z,16.15
2022-12-27T03:06:43.226Z,10.95
2022-12-27T03:10:03.433Z,11.75
2022-12-27T03:13:14.465Z,13.95
2022-12-27T03:15:58.369Z,15.52
2022-12-27T03:18:38.815Z,10.27
2022-12-27T03:21:26.790Z,13.35
2022-12-27T03:24:15.075Z,11.18
2022-12-27T03:26:47.329Z,14.32
2022-12-27T03:29:35.973Z,10.25
2022-12-27T03:32:26.209Z,14.48
2022-12-27T03:35:02.789Z,13.48
2022-12-27T03:37:52.942Z,11.52
2022-12-27T03:40:30.123Z,12.60
2022-12-27T03:43:11.181Z,13.52
2022-12-27T03:46:14.355Z,12.07
2022-12-27T03:48:58.286Z,13.98
2022-12-27T03:51:31.194Z,14.03
2022-12-27T03:54:05.155Z,10.73
2022-12-27T03:56:33.654Z,11.77
2022-12-27T03:59:03.938Z,13.00
2022-12-27T04:01:32.483Z,16.15
2022-12-27T04:04:01.103Z,15.93
2022-12-27T04:06:30.981Z,11.35
2022-12-27T04:09:16.965Z,15.27
2022-12-27T04:12:02.607Z,15.27
2022-12-27T04:14:48.175Z,10.55
2022-12-27T04:17:33.928Z,14.32
2022-12-27T04:20:19.614Z,15.45
2022-12-27T04:23:06.523Z,19.23
2022-12-27T04:25:52.235Z,15.98
2022-12-27T04:28:37.909Z,10.85
2022-12-27T04:31:24.456Z,15.13
2022-12-27T04:34:10.268Z,10.63
2022-12-27T04:36:38.766Z,10.48
2022-12-27T04:39:08.645Z,13.00
2022-12-27T04:41:54.449Z,17.65
2022-12-27T04:44:40.233Z,14.93
2022-12-27T04:47:30.590Z,10.25
2022-12-27T04:50:16.259Z,8.93
2022-12-27T04:53:02.230Z,11.30
2022-12-27T04:55:32.068Z,12.27
2022-12-27T04:58:00.709Z,12.45
2022-12-27T05:00:49.446Z,11.90
2022-12-27T05:03:20.909Z,10.15
2022-12-27T05:05:51.120Z,14.65
2022-12-27T05:08:38.630Z,13.77
2022-12-27T05:11:26.667Z,11.43
2022-12-27T05:14:01.199Z,14.23
2022-12-27T05:16:31.547Z,11.63
2022-12-27T05:18:59.970Z,13.95
2022-12-27T05:21:28.474Z,17.08
2022-12-27T05:24:14.245Z,14.90
2022-12-27T05:26:44.843Z,11.93
2022-12-27T05:29:13.316Z,18.08
2022-12-27T05:31:41.822Z,12.18
2022-12-27T05:34:10.239Z,16.55
2022-12-27T05:36:38.706Z,18.33
2022-12-27T05:39:07.087Z,12.50
2022-12-27T05:41:37.433Z,13.68
2022-12-27T05:44:07.838Z,11.23
2022-12-27T05:46:37.453Z,13.45
2022-12-27T05:49:06.034Z,15.40
2022-12-27T05:51:34.480Z,10.23
2022-12-27T05:54:02.968Z,12.95
2022-12-27T05:56:31.424Z,12.52
2022-12-27T05:58:59.855Z,13.00
2022-12-27T06:01:29.806Z,13.02
2022-12-27T06:03:58.257Z,13.18
2022-12-27T06:06:26.808Z,14.00
2022-12-27T06:08:55.759Z,11.80
2022-12-27T06:11:24.264Z,15.65
2022-12-27T06:13:54.472Z,12.77
2022-12-27T06:16:23.790Z,11.85
2022-12-27T06:18:54.341Z,12.63
2022-12-27T06:21:23.357Z,9.50
2022-12-27T06:23:52.062Z,14.57
2022-12-27T06:26:22.983Z,8.50
2022-12-27T06:28:52.244Z,8.13
2022-12-27T06:31:21.730Z,12.60
2022-12-27T06:33:51.561Z,14.77
2022-12-27T06:36:23.120Z,10.13
2022-12-27T06:38:51.750Z,8.65
2022-12-27T06:41:20.655Z,10.88
2022-12-27T06:43:49.658Z,10.20
2022-12-27T06:46:19.111Z,11.85
2022-12-27T06:48:48.311Z,13.90
2022-12-27T06:51:19.207Z,11.13
2022-12-27T06:53:49.613Z,9.02
2022-12-27T06:56:20.414Z,10.50
2022-12-27T06:58:49.897Z,10.02
2022-12-27T07:01:20.016Z,9.98
2022-12-27T07:03:51.342Z,12.30
2022-12-27T07:06:20.643Z,10.13
2022-12-27T07:08:51.890Z,8.25
2022-12-27T07:11:21.339Z,8.98
2022-12-27T07:13:52.281Z,10.38
2022-12-27T07:16:23.462Z,8.23
2022-12-27T07:18:52.589Z,11.23
2022-12-27T07:21:22.831Z,9.52
2022-12-27T07:23:52.916Z,10.80
2022-12-27T07:26:23.176Z,10.65
2022-12-27T07:28:55.051Z,8.50
2022-12-27T07:31:26.409Z,10.75
2022-12-27T07:33:55.058Z,10.15
2022-12-27T07:36:26.652Z,8.20
2022-12-27T07:38:56.839Z,8.65
2022-12-27T07:41:25.866Z,9.73
2022-12-27T07:43:54.639Z,12.27
2022-12-27T07:46:24.665Z,9.25
2022-12-27T07:48:54.691Z,7.03
2022-12-27T07:51:24.438Z,9.52
2022-12-27T07:53:53.292Z,14.13
2022-12-27T07:56:26.665Z,13.63
2022-12-27T07:58:56.775Z,10.02
2022-12-27T08:01:26.912Z,14.00
2022-12-27T08:03:55.778Z,8.52
2022-12-27T08:06:28.935Z,9.90
2022-12-27T08:08:59.953Z,12.55
2022-12-27T08:11:30.149Z,13.43
2022-12-27T08:13:58.723Z,8.63
2022-12-27T08:16:28.019Z,6.95
2022-12-27T08:18:57.001Z,10.30
2022-12-27T08:21:25.320Z,12.82
2022-12-27T08:23:53.725Z,11.05
2022-12-27T08:26:22.139Z,16.95
2022-12-27T08:28:52.352Z,13.40
2022-12-27T08:31:20.939Z,14.90
2022-12-27T08:33:56.547Z,12.98
2022-12-27T08:39:15.096Z,15.57
2022-12-27T08:41:43.473Z,11.60
2022-12-27T08:44:13.896Z,10.98
2022-12-27T08:46:42.352Z,10.80
2022-12-27T08:49:10.779Z,11.65
2022-12-27T08:51:41.420Z,13.18
2022-12-27T08:54:10.415Z,11.45
2022-12-27T08:56:38.770Z,12.60
2022-12-27T08:59:07.235Z,13.00
2022-12-27T09:01:37.243Z,10.00
2022-12-27T09:04:06.107Z,9.40
2022-12-27T09:06:34.646Z,6.70
2022-12-27T09:09:03.150Z,12.48
2022-12-27T09:11:34.305Z,11.07
2022-12-27T09:14:05.200Z,15.30
2022-12-27T09:16:35.548Z,10.77
2022-12-27T09:19:06.235Z,11.75
2022-12-27T09:21:35.364Z,12.68
2022-12-27T09:24:03.914Z,12.88
2022-12-27T09:26:32.344Z,12.73
2022-12-27T09:29:02.406Z,11.13
2022-12-27T09:31:31.112Z,13.32
2022-12-27T09:34:00.016Z,11.88
2022-12-27T09:36:30.719Z,13.68
2022-12-27T09:38:59.926Z,9.98
2022-12-27T09:44:44.027Z,11.75
2022-12-27T09:47:16.245Z,13.32
2022-12-27T09:49:47.498Z,11.77
2022-12-27T09:52:22.208Z,10.75
2022-12-27T09:55:02.640Z,13.43
2022-12-27T09:57:38.285Z,12.98
2022-12-27T10:00:16.003Z,11.38
2022-12-27T10:02:45.504Z,12.20
2022-12-27T10:05:22.524Z,11.13
2022-12-27T10:08:13.665Z,9.35
2022-12-27T10:10:48.008Z,15.18
2022-12-27T10:16:10.466Z,10.45
2022-12-27T10:18:49.971Z,11.63
2022-12-27T10:21:24.389Z,13.48
2022-12-27T10:26:25.532Z,11.70
2022-12-27T10:28:59.206Z,12.23
2022-12-27T10:31:28.896Z,11.90
2022-12-27T10:33:57.885Z,11.18
2022-12-27T10:36:28.958Z,11.43
2022-12-27T10:38:58.851Z,10.27
2022-12-27T10:41:40.134Z,14.38
2022-12-27T10:44:11.857Z,8.80
2022-12-27T10:46:42.682Z,13.57
2022-12-27T10:49:25.455Z,15.32
2022-12-27T10:51:56.923Z,11.50
2022-12-27T10:54:28.768Z,16.20
2022-12-27T10:56:58.926Z,10.52
2022-12-27T10:59:29.203Z,10.77
2022-12-27T11:02:17.756Z,13.98
2022-12-27T11:05:20.647Z,9.77
2022-12-27T11:07:49.067Z,13.27
2022-12-27T11:10:21.075Z,10.05
2022-12-27T11:12:57.615Z,11.75
2022-12-27T11:15:27.557Z,10.52
2022-12-27T11:17:59.263Z,15.27
2022-12-27T11:20:30.471Z,13.75
2022-12-27T11:23:01.901Z,12.52
2022-12-27T11:25:32.714Z,10.88
2022-12-27T11:28:04.175Z,12.25
2022-12-27T11:30:35.353Z,15.20
2022-12-27T11:33:07.325Z,12.88
2022-12-27T11:35:47.350Z,12.75
2022-12-27T11:38:25.570Z,12.35
2022-12-27T11:41:03.085Z,11.50
2022-12-27T11:43:36.715Z,15.88
2022-12-27T11:46:11.163Z,17.42
2022-12-27T11:48:43.336Z,20.48
2022-12-27T11:51:43.083Z,18.63
2022-12-27T11:54:31.623Z,12.93
2022-12-27T11:57:13.292Z,12.88
2022-12-27T11:59:54.073Z,16.00
2022-12-27T12:02:35.267Z,11.82
2022-12-27T12:05:48.852Z,20.13
2022-12-27T12:08:44.834Z,18.67
2022-12-27T12:11:25.999Z,13.85
2022-12-27T12:14:27.907Z,13.95
2022-12-27T12:17:16.581Z,12.40
2022-12-27T12:20:00.036Z,13.88
2022-12-27T12:22:48.996Z,20.65
2022-12-27T12:25:36.618Z,17.95
2022-12-27T12:28:56.198Z,14.50
2022-12-27T12:31:30.719Z,13.45
2022-12-27T12:34:11.084Z,11.77
2022-12-27T12:36:53.344Z,11.32
2022-12-27T12:39:32.716Z,11.32
2022-12-27T12:42:16.422Z,14.23
2022-12-27T12:45:21.482Z,14.13
2022-12-27T12:48:08.700Z,15.27
2022-12-27T12:50:55.921Z,12.60
2022-12-27T12:53:43.226Z,14.88
2022-12-27T12:56:33.826Z,13.32
2022-12-27T12:59:17.374Z,15.32
2022-12-27T13:02:02.070Z,13.90
2022-12-27T13:04:44.108Z,15.75
2022-12-27T13:07:28.172Z,17.30
2022-12-27T13:10:17.969Z,17.67
2022-12-27T13:12:55.536Z,16.13
2022-12-27T13:15:36.008Z,11.23
2022-12-27T13:18:18.228Z,15.50
2022-12-27T13:21:01.311Z,13.90
2022-12-27T13:23:40.405Z,21.25
2022-12-27T13:26:20.890Z,17.50
2022-12-27T13:29:09.276Z,15.05
2022-12-27T13:31:48.764Z,25.17
2022-12-27T13:34:30.567Z,20.52
2022-12-27T13:37:13.117Z,12.10
2022-12-27T13:39:56.745Z,11.18
2022-12-27T13:42:44.621Z,10.13
2022-12-27T13:45:29.133Z,14.30
2022-12-27T13:48:12.801Z,12.90
2022-12-27T13:51:14.882Z,15.70
2022-12-27T13:54:18.722Z,16.38
2022-12-27T13:56:56.910Z,14.27
2022-12-27T14:00:04.247Z,12.70
2022-12-27T14:03:15.138Z,10.70
2022-12-27T14:06:17.639Z,13.35
2022-12-27T14:09:16.221Z,13.18
2022-12-27T14:11:57.671Z,15.27
2022-12-27T14:14:28.787Z,16.85
2022-12-27T14:17:18.906Z,18.38
2022-12-27T14:20:04.761Z,13.00
2022-12-27T14:22:54.534Z,15.50
2022-12-27T14:26:01.814Z,13.43
2022-12-27T14:29:09.147Z,14.52
2022-12-27T14:32:15.571Z,14.60
2022-12-27T14:35:19.019Z,15.02
2022-12-27T14:38:24.536Z,15.20
2022-12-27T14:41:40.719Z,17.40
2022-12-27T14:44:43.095Z,13.57
2022-12-27T14:47:43.682Z,13.77
2022-12-27T14:50:48.953Z,29.30
2022-12-27T14:53:54.346Z,23.50
2022-12-27T14:59:16.220Z,12.95
2022-12-27T15:04:50.068Z,13.73
2022-12-27T15:07:53.545Z,19.52
2022-12-27T15:10:31.839Z,31.10
2022-12-27T15:13:12.765Z,19.73
2022-12-27T15:15:53.978Z,16.33
2022-12-27T15:18:42.216Z,12.95
2022-12-27T15:21:37.089Z,13.10
2022-12-27T15:24:24.094Z,18.10
2022-12-27T15:26:57.093Z,20.65
2022-12-27T15:29:38.295Z,21.92
2022-12-27T15:32:20.654Z,21.65
2022-12-27T15:35:10.007Z,22.65
2022-12-27T15:38:04.208Z,23.33
2022-12-27T15:40:49.524Z,21.87
2022-12-27T15:43:39.238Z,26.48
2022-12-27T15:46:23.511Z,22.08
2022-12-27T15:49:29.214Z,29.13
2022-12-27T15:52:04.465Z,25.38
2022-12-27T15:54:53.881Z,17.98
2022-12-27T15:57:45.022Z,19.73
2022-12-27T16:00:18.347Z,17.95
2022-12-27T16:02:54.533Z,19.38
2022-12-27T16:05:48.420Z,62.47
2022-12-27T16:08:28.827Z,41.22
2022-12-27T16:10:58.300Z,31.08
2022-12-27T16:13:46.050Z,32.70
2022-12-27T16:16:57.008Z,35.08
2022-12-27T16:19:40.953Z,37.22
2022-12-27T16:22:24.681Z,27.88
2022-12-27T16:24:54.957Z,29.60
2022-12-27T16:27:31.104Z,68.15
2022-12-27T16:30:00.780Z,57.58
2022-12-27T16:32:29.842Z,39.95
2022-12-27T16:35:13.659Z,42.40
2022-12-27T16:37:45.781Z,45.87
2022-12-27T16:40:43.189Z,46.58
2022-12-27T16:43:47.379Z,36.72
2022-12-27T16:46:22.467Z,41.63
2022-12-27T16:49:04.930Z,44.80
2022-12-27T16:51:44.580Z,61.30
2022-12-27T16:54:24.039Z,60.88
2022-12-27T16:57:31.434Z,53.92
2022-12-27T17:00:02.403Z,49.42
2022-12-27T17:02:38.825Z,44.83
2022-12-27T17:05:36.090Z,51.38
2022-12-27T17:08:18.851Z,40.20
2022-12-27T17:11:02.676Z,31.33
2022-12-27T17:13:42.849Z,23.63
2022-12-27T17:16:20.120Z,39.10
2022-12-27T17:18:53.053Z,44.83
2022-12-27T17:21:30.404Z,59.55
2022-12-27T17:24:02.561Z,35.13
2022-12-27T17:26:47.803Z,31.70
2022-12-27T17:29:43.233Z,23.48
2022-12-27T17:32:24.642Z,38.42
2022-12-27T17:35:01.527Z,49.00
2022-12-27T17:37:42.224Z,71.13
2022-12-27T17:40:25.346Z,48.55
2022-12-27T17:43:23.648Z,74.15
2022-12-27T17:45:59.155Z,72.72
2022-12-27T17:48:29.911Z,47.65
2022-12-27T17:51:02.587Z,19.38
2022-12-27T17:53:48.428Z,19.23
2022-12-27T17:56:38.115Z,21.50
2022-12-27T17:59:10.673Z,26.60
2022-12-27T18:01:45.513Z,28.35
2022-12-27T18:04:25.073Z,32.38
2022-12-27T18:06:57.393Z,29.67
2022-12-27T18:09:41.865Z,35.67
2022-12-27T18:12:13.373Z,31.83
2022-12-27T18:14:42.279Z,28.17
2022-12-27T18:17:28.993Z,25.20
2022-12-27T18:19:57.872Z,25.10
2022-12-27T18:22:26.412Z,19.05
2022-12-27T18:24:54.794Z,28.40
2022-12-27T18:27:25.977Z,21.42
2022-12-27T18:29:54.361Z,23.33
2022-12-27T18:32:26.516Z,23.92
2022-12-27T18:34:58.406Z,38.88
2022-12-27T18:37:28.378Z,29.13
2022-12-27T18:40:00.239Z,21.63
2022-12-27T18:42:34.424Z,31.00
2022-12-27T18:45:06.084Z,29.83
2022-12-27T18:47:40.537Z,27.63
2022-12-27T18:52:49.599Z,39.58
2022-12-27T18:55:26.779Z,25.27
2022-12-27T18:58:04.738Z,24.58
2022-12-27T19:00:33.338Z,63.45
2022-12-27T19:03:16.236Z,180.48
2022-12-27T19:05:59.699Z,72.80
2022-12-27T19:08:34.894Z,34.10
2022-12-27T19:11:04.110Z,20.95
2022-12-27T19:13:41.258Z,19.15
2022-12-27T19:16:19.384Z,23.13
2022-12-27T19:18:52.789Z,27.48
2022-12-27T19:21:29.433Z,19.58
2022-12-27T19:23:57.940Z,29.42
2022-12-27T19:26:31.161Z,54.47
2022-12-27T19:29:03.349Z,64.70
2022-12-27T19:31:32.465Z,26.77
2022-12-27T19:34:08.155Z,29.27
2022-12-27T19:36:39.712Z,40.83
2022-12-27T19:39:16.001Z,32.47
2022-12-27T19:41:44.395Z,37.55
2022-12-27T19:44:12.980Z,27.65
2022-12-27T19:46:41.353Z,28.35
2022-12-27T19:52:00.721Z,22.42
2022-12-27T19:54:29.751Z,20.77
2022-12-27T19:56:58.164Z,22.40
2022-12-27T19:59:26.611Z,21.88
2022-12-27T20:01:55.166Z,30.35
2022-12-27T20:04:25.230Z,22.10
2022-12-27T20:06:54.534Z,33.92
2022-12-27T20:09:22.937Z,24.20
2022-12-27T20:11:51.365Z,26.35
2022-12-27T20:14:19.828Z,21.95
2022-12-27T20:16:48.326Z,20.25
2022-12-27T20:19:18.298Z,28.95
2022-12-27T20:21:48.463Z,24.88
2022-12-27T20:24:17.517Z,19.75
2022-12-27T20:26:45.926Z,21.30
2022-12-27T20:29:15.184Z,19.17
2022-12-27T20:31:48.471Z,19.17
2022-12-27T20:34:16.884Z,27.08
2022-12-27T20:36:45.719Z,20.45
2022-12-27T20:39:16.464Z,20.45
2022-12-27T20:41:44.833Z,23.35
2022-12-27T20:44:14.744Z,22.17
2022-12-27T20:46:43.266Z,23.10
2022-12-27T20:49:11.630Z,20.02
2022-12-27T20:51:41.529Z,19.10
2022-12-27T20:54:13.240Z,20.20
2022-12-27T20:56:43.135Z,16.30
2022-12-27T20:59:11.679Z,18.65
2022-12-27T21:01:40.218Z,18.50
2022-12-27T21:04:10.225Z,16.13
2022-12-27T21:06:38.707Z,21.35
2022-12-27T21:09:08.633Z,19.83
2022-12-27T21:11:37.114Z,19.52
2022-12-27T21:14:07.239Z,18.35
2022-12-27T21:16:36.728Z,17.58
2022-12-27T21:19:06.104Z,16.48
2022-12-27T21:21:36.771Z,19.67
2022-12-27T21:24:07.356Z,17.23
2022-12-27T21:26:37.971Z,18.67
2022-12-27T21:29:10.196Z,15.55
2022-12-27T21:31:38.955Z,16.52
2022-12-27T21:34:07.947Z,16.08
2022-12-27T21:36:38.251Z,19.92
2022-12-27T21:39:07.459Z,17.55
2022-12-27T21:41:37.520Z,18.42
2022-12-27T21:44:07.944Z,17.55
2022-12-27T21:46:38.105Z,16.40
2022-12-27T21:49:08.405Z,16.75
2022-12-27T21:51:37.952Z,16.73
2022-12-27T21:54:06.899Z,15.55
2022-12-27T21:56:35.399Z,17.92
2022-12-27T21:59:07.191Z,20.58
2022-12-27T22:01:51.589Z,16.95
2022-12-27T22:04:21.550Z,16.05
2022-12-27T22:06:50.257Z,18.42
2022-12-27T22:09:19.555Z,16.60
2022-12-27T22:11:48.898Z,17.63
2022-12-27T22:14:20.704Z,13.65
2022-12-27T22:16:53.220Z,16.40
2022-12-27T22:19:21.646Z,14.85
2022-12-27T22:21:50.103Z,20.60
2022-12-27T22:24:19.665Z,22.27
2022-12-27T22:26:49.976Z,16.65
2022-12-27T22:29:18.486Z,14.95
2022-12-27T22:31:46.888Z,14.48
2022-12-27T22:34:16.728Z,14.18
2022-12-27T22:36:45.127Z,16.63
2022-12-27T22:39:13.523Z,16.98
2022-12-27T22:41:41.918Z,16.60
2022-12-27T22:44:13.424Z,17.52
2022-12-27T22:47:23.814Z,13.63
2022-12-27T22:49:32.203Z,11.13
2022-12-27T22:52:00.558Z,14.05
2022-12-27T22:55:06.001Z,14.57
2022-12-27T22:57:17.271Z,14.23
2022-12-27T22:59:45.658Z,13.13
2022-12-27T23:02:14.150Z,14.40
2022-12-27T23:04:44.402Z,13.38
2022-12-27T23:07:12.839Z,15.75
2022-12-27T23:09:43.677Z,12.80
2022-12-27T23:12:12.708Z,17.17
2022-12-27T23:14:41.534Z,13.65
2022-12-27T23:17:10.072Z,14.90
2022-12-27T23:19:38.487Z,13.23
2022-12-27T23:22:08.221Z,14.02
2022-12-27T23:24:37.175Z,13.25
2022-12-27T23:27:05.508Z,13.48
2022-12-27T23:29:33.894Z,13.63
2022-12-27T23:32:02.327Z,14.15
2022-12-27T23:34:30.997Z,12.55
2022-12-27T23:36:59.817Z,15.68
2022-12-27T23:39:29.642Z,15.82
2022-12-27T23:41:58.149Z,15.27
2022-12-27T23:44:33.229Z,14.25
2022-12-27T23:47:04.482Z,15.77
2022-12-27T23:49:33.066Z,12.27
2022-12-27T23:52:01.410Z,13.13
2022-12-27T23:54:31.190Z,12.52
2022-12-27T23:57:20.403Z,15.02
2022-12-27T23:59:49.240Z,12.85
